Eduardo Morales

Chefscout - Lanús
22 Feb 2028
Dienstag
Verarbeitung

Persönlichkeit

Anpassungsfähigkeit (16) Ehrgeiz (9) Kontroverse (9) Loyalität (13) Druck (14) Professionalität (3) Fairness (8) Temperament (8)

Profil

Trainerstil Demokratisch
Lizenz Nationale B
Entschlossenheit 12
Menschenführung 14
Motivation 14
Disziplin 9
Arbeitszufriedenheit
100%
Ermüdung
0%
Rolle Chefscout
Gehalt 50.5K p/W
Vertrag 14.03.2028

Leistung

Verhalten Gut
Trainingseffektivität
38%
Spielerentwicklung
45%
Verletzungsprävention
25%
Taktische Umsetzung
25%

Letzte Ereignisse

Vertragsverhandlung begonnen jetzt
Empfahl ein Transferziel 7T her
Vertragsverhandlung begonnen 7T her
Vertragsverhandlung begonnen 7T her
Vertragsverhandlung begonnen 7T her
Vertragsverhandlung begonnen 7T her
Vertragsverhandlung begonnen 7T her
Vertragsverhandlung begonnen 7T her

Aktuell beobachtet

160
Spieler Verein Status Fähigkeit Vertrauen Beobachtet Zuletzt beobachtet Letzte Stimme
Agustín Medina Valencia Aktiv 118 / 140 40% 3 01.12.2027 -
Ez Abde Girona Aktiv 144 / 153 40% 1 30.11.2027 -
Jonathan David Juventus Aktiv 172 / 172 40% 1 30.11.2027 -
Mikkel Hope Haugesund Aktiv 99 / 110 40% 5 29.11.2027 -
Mauro Carrizo Atlético Tucumán Aktiv 92 / 98 40% 2 29.11.2027 -
Matías Canedo Rampla Juniors Aktiv 84 / 87 40% 1 26.11.2027 -
Tobias Moi Bodo/Glimt Aktiv 106 / 111 40% 2 25.11.2027 -
Fillip Jenssen Riise Stabaek Aktiv 94 / 111 40% 4 23.11.2027 -
Samuel Posada Leones Aktiv 82 / 100 40% 3 23.11.2027 -
Ignacio Fernández Boston River Aktiv 90 / 94 40% 2 22.11.2027 -
Tobías Andrada Virtus Entella Aktiv 112 / 147 40% 4 22.11.2027 -
Bahia Criciuma Aktiv 116 / 125 40% 3 21.11.2027 -
Agustín Obregón River Plate Aktiv 117 / 112 40% 1 21.11.2027 -
Yury Oyarzo Racing Aktiv 96 / 90 40% 1 19.11.2027 -
Mohamed Bolivar Barranquilla Aktiv 96 / 93 40% 1 18.11.2027 -
José Correa Deportivo Tachira Aktiv 89 / 106 40% 1 18.11.2027 -
Olaniyi Saheed Kwara United Aktiv 91 / 99 40% 3 12.11.2027 -
Joel Ezra Enyimba Aktiv 91 / 104 40% 3 11.11.2027 -
Dominik Chong Qui Atlanta United FC Aktiv 86 / 115 40% 1 10.11.2027 -
Juan Camilo Córdoba Deportivo Pereira Aktiv 88 / 91 40% 6 06.11.2027 -
Tyson Pearce St. Louis CITY SC Aktiv 88 / 92 40% 2 04.11.2027 -
Lucas Camejo River Plate Aktiv 82 / 85 40% 2 03.11.2027 -
Gift Udoh Ikorodu City Aktiv 88 / 102 40% 1 03.11.2027 -
Elkin Rivero Atletico Nacional Aktiv 109 / 109 40% 1 02.11.2027 -
Felipe Obradovich Ferro Carril Oeste Aktiv 116 / 119 40% 2 28.10.2027 -
Hosea Michael Remo Stars Aktiv 98 / 93 40% 1 27.10.2027 -
Ángel Aguayo Sol de America Aktiv 97 / 110 40% 1 24.10.2027 -
Dylan Gorosito Villarreal Aktiv 132 / 112 40% 1 23.10.2027 -
Thiago Helguera Braga Aktiv 110 / 135 40% 2 22.10.2027 -
Tiago Gordillo San Miguel Aktiv 75 / 98 40% 1 22.10.2027 -
Germán Barbas Penarol Aktiv 102 / 114 40% 1 20.10.2027 -
Josh King Chelsea Aktiv 148 / 150 40% 1 20.10.2027 -
Celías Ingenthron Vélez Aktiv 125 / 112 40% 1 16.10.2027 -
Matías Gómez Granada Aktiv 110 / 118 40% 1 15.10.2027 -
Daniel Gomez Valledupar Aktiv 98 / 104 40% 1 11.10.2027 -
Martín Jiménez Audax Italiano Aktiv 100 / 99 40% 1 08.10.2027 -
Samuel Martín Millonarios Aktiv 106 / 122 40% 1 06.10.2027 -
Gonzalo Siri Argentinos Juniors Aktiv 102 / 97 40% 3 01.06.2027 -
Yankuba Minteh Brighton Aktiv 144 / 148 40% 7 30.05.2027 -
Nicolò Savona Nottingham Forest Aktiv 140 / 133 40% 3 27.05.2027 -
Marquinhos Spartak Moscow Aktiv 148 / 120 40% 4 27.05.2027 -
Ilias Akhomach Villarreal Aktiv 143 / 136 40% 2 24.05.2027 -
Jofre Torrents Ajax Aktiv 112 / 121 40% 1 19.05.2027 -
Jhon Jhon Zenit Aktiv 146 / 120 40% 2 02.05.2027 -
Christ Inao Oulaï Fiorentina Aktiv 137 / 137 40% 1 29.04.2027 -
Facundo Bernal Betis Aktiv 150 / 132 40% 1 26.04.2027 -
Gustavo Mantuan Zenit Aktiv 143 / 120 40% 4 15.04.2027 -
Georges-Kévin Nkoudou Al-Diriyah Aktiv 144 / 112 40% 5 04.04.2027 -
Rubens Dinamo Moscow Aktiv 120 / 116 40% 2 02.04.2027 -
Marco Bellich Juve Stabia Aktiv 142 / 139 40% 1 02.04.2027 -
Crysencio Summerville Al-Hilal Aktiv 128 / 152 40% 3 31.03.2027 -
Yacine Adli Al-Shabab Aktiv 140 / 153 40% 3 23.03.2027 -
Dion Lopy Al-Ittihad Aktiv 148 / 124 40% 1 23.03.2027 -
Eduard Spertsyan Al-Ahli Aktiv 150 / 146 40% 1 19.03.2027 -
Samú Al-Nassr Aktiv 145 / 134 40% 3 17.03.2027 -
Maxim Glushenkov Zenit Aktiv 133 / 132 40% 5 13.03.2027 -
Trezeguet Al-Riyadh Aktiv 114 / 142 40% 1 10.03.2027 -
Matheus Gonçalves Al-Ahli Aktiv 139 / 143 40% 1 08.03.2027 -
Matvey Kislyak CSKA Moscow Aktiv 125 / 129 40% 3 03.03.2027 -
Marquinhos APOEL Aktiv 127 / 124 40% 2 25.02.2027 -
Danil Glebov Dinamo Moscow Aktiv 112 / 116 40% 2 16.02.2027 -
Galeno Al-Ahli Aktiv 138 / 136 40% 1 12.02.2027 -
Oscar Al-Taawoun Aktiv 161 / 153 40% 2 10.02.2027 -
Marcelo Allende Mamelodi Sundowns Aktiv 151 / 130 40% 1 07.02.2027 -
Álex Centelles Levski Aktiv 128 / 142 40% 3 26.01.2027 -
Bradley Tau SuperSport United Aktiv 145 / 122 40% 2 23.01.2027 -
Ali Majrashi Al-Ahli Aktiv 119 / 144 40% 1 21.01.2027 -
Victor Parada Spartak Moscow Aktiv 132 / 128 40% 1 21.01.2027 -
Filip Kaloč Ludogorets Aktiv 144 / 120 40% 2 16.01.2027 -
Tomás Silva Platense Aktiv 124 / 125 40% 1 12.01.2027 -
Alexandr Chernikov Krasnodar Aktiv 126 / 126 40% 2 11.01.2027 -
Mahamadou Doumbia Al-Ittihad Aktiv 121 / 130 40% 1 07.01.2027 -
Dean Huijsen Villarreal Aktiv 140 / 149 40% 1 02.01.2027 -
Nail Umyarov Spartak Moscow Aktiv 134 / 140 40% 1 31.12.2026 -
Santiago González Tigre Aktiv 132 / 130 40% 1 30.12.2026 -
Alexandr Siljanov Lokomotiv Moscow Aktiv 139 / 140 40% 1 29.12.2026 -
Tahiel Peralta Huracán Aktiv 105 / 110 51% 1 28.12.2026 -
Reda Khadra Qarabag Aktiv 133 / 127 40% 1 28.12.2026 -
Batxi Krasnodar Aktiv 138 / 144 40% 1 26.12.2026 -
Mauro Arambarri River Plate Aktiv 155 / 163 40% 2 22.12.2026 -
César Ibáñez Huracán Aktiv 119 / 127 40% 1 21.12.2026 -
Nobel Mendy Hull City Aktiv 143 / 140 40% 1 17.12.2026 -
Facundo Zabala Independiente Aktiv 115 / 121 40% 1 17.12.2026 -
Eric Meza Estudiantes Aktiv 124 / 135 40% 1 16.12.2026 -
Oleksii Hutsuliak Polissia Aktiv 131 / 119 75% 4 04.12.2026 Klar befürworten
Lewis Morgan SuperSport United Aktiv 118 / 123 40% 2 01.12.2026 -
Moussa Dembélé CR Belouizdad Aktiv 137 / 124 40% 1 29.11.2026 Mehr Infos nötig
Luka Kurtovic NK Domzale Aktiv 128 / 116 40% 2 28.11.2026 -
Manfred Ugalde Spartak Moscow Aktiv 114 / 145 40% 5 25.11.2026 -
Younes Ebnoutalib Eintracht Frankfurt Aktiv 126 / 137 40% 1 25.11.2026 -
Yusuke Matsuo Esteghlal Aktiv 124 / 129 40% 4 24.11.2026 -
Alan Lescano Argentinos Juniors Aktiv 143 / 119 40% 2 24.11.2026 -
Wendel Zenit Aktiv 156 / 155 40% 2 21.11.2026 -
Franco Ibarra Rosario Central Aktiv 130 / 129 40% 1 21.11.2026 -
Mojmír Chytil NK Maribor Aktiv 148 / 144 40% 1 18.11.2026 -
Martín Ojeda Orlando City Aktiv 115 / 127 40% 2 17.11.2026 -
Théo Hernández Al-Hilal Aktiv 162 / 138 40% 1 15.11.2026 -
Karim Konaté Red Bull Salzburg Aktiv 147 / 147 40% 3 13.11.2026 -
Ryan Gauld Vancouver Whitecaps Aktiv 121 / 133 40% 1 13.11.2026 -
Brais Méndez Columbus Crew Aktiv 134 / 159 40% 4 10.11.2026 -
Wessam Abou Ali Columbus Crew Aktiv 123 / 112 40% 1 10.11.2026 -
Esequiel Barco Spartak Moscow Aktiv 125 / 122 40% 1 10.11.2026 -
Alexandr Sobolev Zenit Aktiv 125 / 136 40% 3 06.11.2026 -
Senny Mayulu Paris Saint-Germain Aktiv 144 / 139 40% 1 05.11.2026 -
Myrto Uzuni Austin FC Aktiv 131 / 117 40% 3 04.11.2026 -
Emanuel Coronel Rosario Central Aktiv 138 / 118 40% 1 02.11.2026 -
Alan Velasco Boca Juniors Aktiv 116 / 117 40% 1 01.11.2026 -
Rubén Duarte Legia Aktiv 130 / 119 40% 1 28.10.2026 -
Lucas Assadi AIK Aktiv 137 / 145 40% 1 28.10.2026 -
Pep Biel Charlotte Football Club Aktiv 120 / 138 40% 1 24.10.2026 -
Bamba Dieng Crvena Zvezda Aktiv 119 / 121 40% 1 20.10.2026 -
Jordan Morris Seattle Sounders Aktiv 139 / 143 40% 1 16.10.2026 -
Gabriel Jesus Barcelona Aktiv 140 / 154 40% 6 15.10.2026 -
Jonathan Bamba Chicago Fire Aktiv 125 / 119 40% 2 15.10.2026 -
Nazareno Colombo Racing Club Aktiv 115 / 133 40% 1 15.10.2026 -
Felipe Augusto Zenit Aktiv 113 / 130 40% 5 14.10.2026 -
Musa Barrow Al-Khaleej Aktiv 154 / 140 40% 1 09.10.2026 -
Ruben van Bommel Ferencvaros Aktiv 120 / 117 40% 2 07.10.2026 -
Marcel Hartel St. Louis CITY SC Aktiv 120 / 130 40% 1 07.10.2026 -
Leo Ceara Kashima Antlers Aktiv 125 / 145 40% 1 03.10.2026 -
Nicolò Tresoldi Club Brugge Aktiv 132 / 127 40% 2 29.09.2026 -
Romelu Castagne KV Oostende Aktiv 120 / 143 40% 2 26.09.2026 -
Iván Angulo Orlando City Aktiv 128 / 114 40% 1 23.09.2026 -
Maurits Kjærgaard Red Bull Salzburg Aktiv 116 / 119 40% 1 23.09.2026 -
Luka Jović AEK Aktiv 118 / 151 40% 1 22.09.2026 -
Rodrigo Echeverría Leon Aktiv 127 / 131 40% 2 21.09.2026 -
Diego Lainez Tigres Aktiv 145 / 136 40% 1 21.09.2026 -
Breel Embolo Atlanta United FC Aktiv 124 / 140 40% 1 19.09.2026 -
Alexey Miranchuk St. Gallen Aktiv 134 / 150 40% 1 19.09.2026 -
Sebastián Córdova Pumas UNAM Aktiv 138 / 129 40% 1 18.09.2026 -
Orbelín Pineda Monterrey Aktiv 156 / 122 40% 1 18.09.2026 -
Tiago Palacios Estudiantes Aktiv 118 / 133 40% 1 17.09.2026 -
Richard Ledezma Guadalajara Aktiv 150 / 141 40% 1 16.09.2026 -
Jannenson Sarmiento Junior Aktiv 123 / 111 40% 1 16.09.2026 -
Agustín Palavecino Cruz Azul Aktiv 141 / 140 40% 1 16.09.2026 -
Barış Alper Yılmaz Galatasaray Aktiv 140 / 138 40% 3 14.09.2026 -
Kerem Aktürkoğlu Fenerbahce Aktiv 137 / 122 40% 2 11.09.2026 -
Víctor Dávila Club America Aktiv 113 / 141 40% 1 11.09.2026 -
Richard Martinez Veracruz Aktiv 122 / 133 40% 1 11.09.2026 -
Carlos Rotondi Cruz Azul Aktiv 116 / 120 40% 2 09.09.2026 -
Yuki Kakita Kashima Antlers Aktiv 115 / 112 40% 1 06.09.2026 -
Mutsuki Kato Sanfrecce Hiroshima Aktiv 113 / 128 40% 1 05.09.2026 -
Erison Kawasaki Frontale Aktiv 132 / 131 40% 1 02.09.2026 -
Ángel Correa River Plate Aktiv 138 / 141 40% 2 01.09.2026 -
Youssef En-Nesyri Al-Ittihad Aktiv 123 / 148 40% 1 30.08.2026 -
Adnan Courtois KV Oostende Aktiv 116 / 115 40% 1 29.08.2026 -
Sam Surridge Nashville SC Aktiv 123 / 139 40% 1 28.08.2026 -
Oussama Idrissi Pachuca Aktiv 145 / 151 40% 1 28.08.2026 Mehr Infos nötig
Ernest Muçi Trabzonspor Aktiv 122 / 130 40% 2 26.08.2026 -
Diego Rossi Monterrey Aktiv 113 / 133 40% 1 25.08.2026 -
Takuma Asano Sanfrecce Hiroshima Aktiv 120 / 138 40% 1 22.08.2026 -
Jesús Ricardo Angulo Toluca Aktiv 112 / 120 40% 1 19.08.2026 -
Clayton Olympiacos Aktiv 132 / 139 40% 1 19.08.2026 -
Jesús Angulo Tigres Aktiv 135 / 142 40% 1 12.08.2026 -
Jesús Gallardo Toluca Aktiv 144 / 125 40% 1 06.08.2026 -
Jesús Orozco Chiquete Cruz Azul Aktiv 132 / 130 40% 1 04.08.2026 -
Gerardo Arteaga Monterrey Aktiv 147 / 131 40% 1 04.08.2026 -
Federico Varese Racing Aktiv 117 / 103 40% 1 03.08.2026 -
Diego Romero Universitario Aktiv 118 / 130 40% 1 03.08.2026 -
Germán Valera Elche Aktiv 129 / 130 40% 1 01.08.2026 -